createdAt,value
2023-04-25T00:01:41.251Z,3.95
2023-04-25T00:04:11.023Z,4.30
2023-04-25T00:06:41.516Z,4.30
2023-04-25T00:09:12.294Z,3.13
2023-04-25T00:11:43.259Z,3.47
2023-04-25T00:14:14.088Z,3.83
2023-04-25T00:16:45.316Z,5.75
2023-04-25T00:19:14.892Z,3.45
2023-04-25T00:21:47.553Z,3.20
2023-04-25T00:24:16.910Z,3.80
2023-04-25T00:26:47.262Z,4.60
2023-04-25T00:29:18.164Z,3.30
2023-04-25T00:31:47.970Z,4.00
2023-04-25T00:34:17.322Z,7.13
2023-04-25T00:36:46.987Z,7.00
2023-04-25T00:39:16.342Z,6.43
2023-04-25T00:41:47.794Z,6.55
2023-04-25T00:44:19.621Z,7.57
2023-04-25T00:46:51.106Z,6.78
2023-04-25T00:49:20.473Z,6.13
2023-04-25T00:51:50.672Z,9.00
2023-04-25T00:54:20.071Z,8.70
2023-04-25T00:56:50.668Z,6.97
2023-04-25T00:59:22.167Z,8.40
2023-04-25T01:01:52.214Z,9.73
2023-04-25T01:04:21.926Z,6.70
2023-04-25T01:06:52.368Z,5.37
2023-04-25T01:09:22.274Z,5.27
2023-04-25T01:11:52.426Z,6.03
2023-04-25T01:14:23.342Z,9.53
2023-04-25T01:16:54.383Z,5.75
2023-04-25T01:19:23.900Z,6.63
2023-04-25T01:21:55.304Z,7.13
2023-04-25T01:24:25.220Z,8.63
2023-04-25T01:26:57.631Z,6.53
2023-04-25T01:29:27.258Z,6.00
2023-04-25T01:31:57.925Z,10.17
2023-04-25T01:34:27.690Z,5.88
2023-04-25T01:36:58.838Z,7.50
2023-04-25T01:41:57.753Z,5.53
2023-04-25T01:44:27.169Z,7.10
2023-04-25T01:46:57.410Z,6.30
2023-04-25T01:49:27.432Z,5.20
2023-04-25T01:51:58.643Z,5.22
2023-04-25T01:57:00.316Z,5.53
2023-04-25T01:59:30.208Z,6.60
2023-04-25T02:02:00.034Z,5.97
2023-04-25T02:04:29.422Z,7.28
2023-04-25T02:07:00.662Z,6.85
2023-04-25T02:09:30.020Z,5.20
2023-04-25T02:12:01.080Z,7.95
2023-04-25T02:14:30.402Z,6.40
2023-04-25T02:17:00.338Z,5.68
2023-04-25T02:19:29.893Z,5.15
2023-04-25T02:22:01.061Z,6.15
2023-04-25T02:27:00.042Z,7.45
2023-04-25T02:29:29.500Z,5.10
2023-04-25T02:31:59.255Z,5.75
2023-04-25T02:34:28.690Z,5.35
2023-04-25T02:37:00.344Z,5.68
2023-04-25T02:39:29.587Z,6.72
2023-04-25T02:42:18.997Z,6.00
2023-04-25T02:44:48.556Z,5.63
2023-04-25T02:47:18.401Z,5.60
2023-04-25T02:49:48.544Z,6.15
2023-04-25T02:52:19.648Z,7.78
2023-04-25T02:54:49.034Z,5.22
2023-04-25T02:57:19.103Z,8.10
2023-04-25T02:59:48.567Z,5.40
2023-04-25T03:02:18.517Z,5.95
2023-04-25T03:04:48.098Z,5.65
2023-04-25T03:07:19.328Z,5.77
2023-04-25T03:09:48.916Z,7.78
2023-04-25T03:12:18.852Z,9.67
2023-04-25T03:14:48.632Z,5.95
2023-04-25T03:17:18.821Z,5.50
2023-04-25T03:19:48.552Z,6.25
2023-04-25T03:22:20.096Z,6.85
2023-04-25T03:24:49.549Z,6.55
2023-04-25T03:27:19.505Z,9.10
2023-04-25T03:29:48.831Z,7.18
2023-04-25T03:32:19.179Z,6.40
2023-04-25T03:34:48.519Z,6.57
2023-04-25T03:37:19.861Z,5.97
2023-04-25T03:42:18.873Z,6.78
2023-04-25T03:44:48.305Z,7.03
2023-04-25T03:47:18.319Z,6.60
2023-04-25T03:49:47.997Z,6.55
2023-04-25T03:52:19.150Z,7.50
2023-04-25T03:54:48.645Z,6.25
2023-04-25T03:57:18.423Z,8.48
2023-04-25T03:59:47.837Z,9.13
2023-04-25T04:02:17.661Z,7.35
2023-04-25T04:04:47.446Z,8.98
2023-04-25T04:07:18.818Z,5.43
2023-04-25T04:09:48.067Z,7.15
2023-04-25T04:12:17.768Z,6.70
2023-04-25T04:14:47.550Z,6.97
2023-04-25T04:17:17.297Z,6.83
2023-04-25T04:19:46.550Z,9.88
2023-04-25T04:22:16.350Z,7.68
2023-04-25T04:24:49.292Z,8.07
2023-04-25T04:27:20.419Z,8.02
2023-04-25T04:29:50.171Z,7.13
2023-04-25T04:32:20.211Z,7.63
2023-04-25T04:34:50.195Z,9.73
2023-04-25T04:37:20.277Z,8.70
2023-04-25T04:39:51.543Z,7.85
2023-04-25T04:42:22.490Z,8.30
2023-04-25T04:44:53.533Z,6.55
2023-04-25T04:47:25.003Z,7.03
2023-04-25T04:49:54.294Z,7.40
2023-04-25T04:52:24.376Z,7.45
2023-04-25T04:54:55.221Z,7.00
2023-04-25T04:57:24.874Z,8.55
2023-04-25T04:59:54.748Z,6.10
2023-04-25T05:02:24.577Z,6.80
2023-04-25T05:04:54.167Z,6.88
2023-04-25T05:07:23.939Z,7.63
2023-04-25T05:09:54.833Z,6.68
2023-04-25T05:12:24.401Z,7.55
2023-04-25T05:14:53.830Z,6.53
2023-04-25T05:17:23.711Z,7.47
2023-04-25T05:19:53.044Z,6.38
2023-04-25T05:22:22.685Z,8.15
2023-04-25T05:24:55.199Z,7.47
2023-04-25T05:27:27.220Z,5.70
2023-04-25T05:29:56.535Z,7.22
2023-04-25T05:32:27.502Z,8.80
2023-04-25T05:34:57.119Z,5.50
2023-04-25T05:37:27.468Z,7.25
2023-04-25T05:39:56.796Z,7.73
2023-04-25T05:42:28.002Z,8.98
2023-04-25T05:44:57.505Z,7.25
2023-04-25T05:47:27.204Z,8.60
2023-04-25T05:49:56.621Z,6.97
2023-04-25T05:52:26.781Z,5.28
2023-04-25T05:54:56.365Z,7.13
2023-04-25T05:57:29.558Z,6.78
2023-04-25T05:59:58.949Z,7.05
2023-04-25T06:02:28.973Z,6.90
2023-04-25T06:04:59.168Z,6.55
2023-04-25T06:07:28.974Z,7.55
2023-04-25T06:09:58.227Z,9.25
2023-04-25T06:12:29.804Z,6.50
2023-04-25T06:14:59.040Z,7.68
2023-04-25T06:17:28.917Z,5.00
2023-04-25T06:19:58.900Z,4.03
2023-04-25T06:22:29.016Z,6.07
2023-04-25T06:25:00.272Z,6.72
2023-04-25T06:27:31.583Z,6.65
2023-04-25T06:30:01.102Z,4.60
2023-04-25T06:32:31.444Z,4.25
2023-04-25T06:35:01.162Z,4.82
2023-04-25T06:37:31.643Z,10.87
2023-04-25T06:40:00.868Z,6.82
2023-04-25T06:42:31.934Z,6.63
2023-04-25T06:45:01.240Z,8.57
2023-04-25T06:47:31.796Z,8.30
2023-04-25T06:50:01.184Z,7.22
2023-04-25T06:52:31.165Z,15.98
2023-04-25T06:55:00.664Z,8.40
2023-04-25T06:57:31.950Z,4.77
2023-04-25T07:00:02.423Z,10.20
2023-04-25T07:02:32.542Z,7.85
2023-04-25T07:05:01.953Z,6.03
2023-04-25T07:07:31.758Z,8.50
2023-04-25T07:10:01.069Z,7.93
2023-04-25T07:12:32.369Z,5.68
2023-04-25T07:17:37.074Z,4.20
2023-04-25T07:20:09.043Z,3.75
2023-04-25T07:22:39.185Z,5.70
2023-04-25T07:25:09.884Z,6.05
2023-04-25T07:27:41.220Z,7.40
2023-04-25T07:30:11.800Z,4.03
2023-04-25T07:35:11.648Z,5.00
2023-04-25T07:37:41.315Z,3.80
2023-04-25T07:40:12.394Z,4.25
2023-04-25T07:42:43.620Z,2.08
2023-04-25T07:47:42.944Z,3.22
2023-04-25T07:50:12.893Z,6.53
2023-04-25T07:52:42.704Z,3.38
2023-04-25T07:55:12.660Z,6.85
2023-04-25T07:57:43.424Z,5.40
2023-04-25T08:00:14.454Z,4.93
2023-04-25T08:02:43.920Z,3.92
2023-04-25T08:05:16.346Z,4.13
2023-04-25T08:07:46.664Z,6.53
2023-04-25T08:10:16.865Z,4.10
2023-04-25T08:12:47.587Z,1.95
2023-04-25T08:15:17.314Z,4.50
2023-04-25T08:17:46.760Z,3.00
2023-04-25T08:20:16.474Z,2.25
2023-04-25T08:22:45.873Z,3.33
2023-04-25T08:25:15.797Z,2.00
2023-04-25T08:27:46.592Z,6.22
2023-04-25T08:30:17.234Z,2.00
2023-04-25T08:32:46.566Z,1.90
2023-04-25T08:35:17.794Z,1.92
2023-04-25T08:37:47.107Z,2.10
2023-04-25T08:40:18.473Z,2.28
2023-04-25T08:42:51.575Z,2.58
2023-04-25T08:45:22.280Z,3.10
2023-04-25T08:47:55.212Z,2.40
2023-04-25T08:50:27.572Z,1.75
2023-04-25T08:52:59.875Z,3.15
2023-04-25T08:55:30.460Z,2.45
2023-04-25T08:58:02.009Z,1.35
2023-04-25T09:00:31.797Z,4.88
2023-04-25T09:03:02.114Z,2.25
2023-04-25T09:05:32.543Z,2.85
2023-04-25T09:08:02.726Z,2.33
2023-04-25T09:13:11.996Z,1.58
2023-04-25T09:15:52.695Z,6.65
2023-04-25T09:18:30.968Z,2.38
2023-04-25T09:21:13.704Z,2.85
2023-04-25T09:23:46.506Z,49.30
2023-04-25T09:26:18.166Z,11.73
2023-04-25T09:28:49.557Z,2.28
2023-04-25T09:31:25.893Z,2.40
2023-04-25T09:34:03.250Z,5.05
2023-04-25T09:36:33.975Z,3.20
2023-04-25T09:39:04.999Z,1.63
2023-04-25T09:41:39.904Z,2.58
2023-04-25T09:44:10.824Z,2.42
2023-04-25T09:46:41.038Z,3.17
2023-04-25T09:49:10.789Z,4.32
2023-04-25T09:51:40.952Z,1.63
2023-04-25T09:54:10.462Z,5.70
2023-04-25T09:56:40.614Z,1.48
2023-04-25T09:59:13.052Z,2.22
2023-04-25T10:01:45.938Z,2.90
2023-04-25T10:04:17.268Z,3.40
2023-04-25T10:06:48.502Z,3.88
2023-04-25T10:09:19.893Z,4.20
2023-04-25T10:11:50.464Z,1.67
2023-04-25T10:14:21.897Z,1.52
2023-04-25T10:16:55.062Z,2.38
2023-04-25T10:19:24.783Z,5.97
2023-04-25T10:21:58.233Z,2.08
2023-04-25T10:24:28.624Z,4.18
2023-04-25T10:29:29.959Z,1.23
2023-04-25T10:32:00.331Z,1.58
2023-04-25T10:34:42.839Z,1.83
2023-04-25T10:37:13.075Z,2.67
2023-04-25T10:39:44.232Z,4.65
2023-04-25T10:42:14.797Z,4.15
2023-04-25T10:45:05.535Z,1.48
2023-04-25T10:47:38.908Z,2.08
2023-04-25T10:50:10.373Z,3.38
2023-04-25T10:52:42.464Z,3.50
2023-04-25T10:55:12.060Z,5.25
2023-04-25T10:57:43.583Z,1.77
2023-04-25T11:00:25.882Z,1.45
2023-04-25T11:03:02.325Z,1.60
2023-04-25T11:05:41.072Z,1.52
2023-04-25T11:08:23.750Z,4.47
2023-04-25T11:10:53.939Z,5.13
2023-04-25T11:13:23.647Z,2.70
2023-04-25T11:16:07.087Z,5.60
2023-04-25T11:18:44.670Z,3.67
2023-04-25T11:21:14.317Z,1.60
2023-04-25T11:23:47.332Z,4.83
2023-04-25T11:26:17.783Z,2.70
2023-04-25T11:28:48.367Z,3.17
2023-04-25T11:31:23.741Z,2.28
2023-04-25T11:33:53.515Z,1.27
2023-04-25T11:36:27.542Z,1.70
2023-04-25T11:38:57.207Z,2.28
2023-04-25T11:41:28.799Z,2.13
2023-04-25T11:43:58.656Z,3.33
2023-04-25T11:46:30.006Z,7.32
2023-04-25T11:49:00.515Z,3.03
2023-04-25T11:51:29.777Z,2.53
2023-04-25T11:53:59.548Z,4.05
2023-04-25T11:56:29.322Z,3.60
2023-04-25T11:59:00.663Z,3.72
2023-04-25T12:01:35.479Z,3.13
2023-04-25T12:04:17.093Z,3.17
2023-04-25T12:06:49.453Z,5.32
2023-04-25T12:09:20.741Z,3.58
2023-04-25T12:14:30.907Z,6.18
2023-04-25T12:17:03.197Z,5.03
2023-04-25T12:19:36.361Z,2.60
2023-04-25T12:22:06.854Z,2.13
2023-04-25T12:24:39.283Z,3.72
2023-04-25T12:27:10.490Z,2.92
2023-04-25T12:29:49.395Z,2.55
2023-04-25T12:32:20.729Z,6.25
2023-04-25T12:34:50.400Z,5.40
2023-04-25T12:37:19.686Z,3.90
2023-04-25T12:39:49.501Z,6.18
2023-04-25T12:42:18.816Z,4.57
2023-04-25T12:44:48.939Z,5.25
2023-04-25T12:47:19.847Z,3.25
2023-04-25T12:49:50.038Z,4.03
2023-04-25T12:52:19.291Z,3.45
2023-04-25T12:54:48.936Z,9.90
2023-04-25T12:57:18.590Z,11.18
2023-04-25T12:59:48.541Z,6.13
2023-04-25T13:02:18.203Z,6.30
2023-04-25T13:04:49.999Z,9.18
2023-04-25T13:09:48.947Z,11.73
2023-04-25T13:12:18.469Z,6.05
2023-04-25T13:14:48.315Z,2.90
2023-04-25T13:17:17.574Z,11.75
2023-04-25T13:19:48.809Z,6.07
2023-04-25T13:24:48.247Z,3.38
2023-04-25T13:27:17.559Z,5.57
2023-04-25T13:29:47.675Z,8.43
2023-04-25T13:32:17.112Z,4.22
2023-04-25T13:34:49.007Z,5.40
2023-04-25T13:37:18.233Z,6.43
2023-04-25T13:39:48.335Z,8.27
2023-04-25T13:42:18.510Z,7.38
2023-04-25T13:44:48.104Z,6.53
2023-04-25T13:47:17.567Z,3.45
2023-04-25T13:49:48.799Z,6.97
2023-04-25T13:54:47.522Z,9.05
2023-04-25T13:57:17.373Z,3.95
2023-04-25T13:59:47.317Z,5.32
2023-04-25T14:02:16.738Z,9.60
2023-04-25T14:04:46.526Z,5.00
2023-04-25T14:07:19.251Z,6.95
2023-04-25T14:09:48.891Z,5.47
2023-04-25T14:12:20.426Z,4.68
2023-04-25T14:14:50.437Z,3.60
2023-04-25T14:17:19.663Z,5.53
2023-04-25T14:19:49.452Z,5.70
2023-04-25T14:22:20.780Z,4.43
2023-04-25T14:24:50.960Z,5.13
2023-04-25T14:27:20.366Z,4.53
2023-04-25T14:29:50.366Z,5.93
2023-04-25T14:32:19.777Z,5.63
2023-04-25T14:34:49.416Z,5.80
2023-04-25T14:37:20.300Z,10.45
2023-04-25T14:39:49.895Z,8.10
2023-04-25T14:42:19.405Z,13.75
2023-04-25T14:44:49.193Z,10.13
2023-04-25T14:47:18.983Z,11.10
2023-04-25T14:49:55.284Z,12.70
2023-04-25T14:52:26.840Z,6.43
2023-04-25T14:54:56.756Z,14.73
2023-04-25T14:57:26.321Z,9.57
2023-04-25T14:59:56.103Z,13.77
2023-04-25T15:02:26.360Z,15.10
2023-04-25T15:04:57.421Z,15.23
2023-04-25T15:07:28.259Z,8.07
2023-04-25T15:09:58.111Z,11.30
2023-04-25T15:12:29.570Z,9.07
2023-04-25T15:14:59.592Z,10.45
2023-04-25T15:17:32.306Z,10.23
2023-04-25T15:20:02.359Z,9.60
2023-04-25T15:22:33.358Z,8.57
2023-04-25T15:25:02.999Z,12.85
2023-04-25T15:27:32.863Z,13.25
2023-04-25T15:30:03.680Z,15.85
2023-04-25T15:32:33.348Z,6.50
2023-04-25T15:35:08.779Z,9.97
2023-04-25T15:37:40.059Z,10.18
2023-04-25T15:40:12.412Z,14.75
2023-04-25T15:42:43.478Z,12.15
2023-04-25T15:45:14.915Z,14.65
2023-04-25T15:47:44.174Z,10.95
2023-04-25T15:50:15.121Z,10.52
2023-04-25T15:52:46.564Z,10.25
2023-04-25T15:55:17.763Z,7.85
2023-04-25T15:57:48.088Z,12.13
2023-04-25T16:00:19.643Z,9.43
2023-04-25T16:02:49.849Z,7.55
2023-04-25T16:05:20.022Z,8.30
2023-04-25T16:07:54.046Z,14.43
2023-04-25T16:10:24.162Z,14.05
2023-04-25T16:12:53.958Z,11.70
2023-04-25T16:15:23.641Z,12.27
2023-04-25T16:17:53.032Z,9.70
2023-04-25T16:20:22.929Z,10.18
2023-04-25T16:22:53.728Z,15.73
2023-04-25T16:25:24.124Z,14.63
2023-04-25T16:27:53.623Z,9.17
2023-04-25T16:30:23.716Z,12.07
2023-04-25T16:32:53.035Z,10.98
2023-04-25T16:35:23.763Z,10.43
2023-04-25T16:37:54.765Z,9.80
2023-04-25T16:40:24.408Z,15.40
2023-04-25T16:42:53.631Z,9.98
2023-04-25T16:45:24.721Z,14.77
2023-04-25T16:47:54.080Z,13.05
2023-04-25T16:50:24.038Z,13.52
2023-04-25T16:52:55.140Z,11.38
2023-04-25T16:55:24.852Z,10.80
2023-04-25T16:57:54.432Z,13.95
2023-04-25T17:00:25.482Z,11.30
2023-04-25T17:02:55.524Z,13.13
2023-04-25T17:05:26.729Z,14.60
2023-04-25T17:07:58.313Z,11.82
2023-04-25T17:10:28.580Z,12.98
2023-04-25T17:12:57.899Z,15.85
2023-04-25T17:15:27.777Z,16.20
2023-04-25T17:17:57.627Z,16.10
2023-04-25T17:20:27.478Z,10.35
2023-04-25T17:22:58.716Z,10.38
2023-04-25T17:25:28.630Z,9.02
2023-04-25T17:27:58.022Z,12.77
2023-04-25T17:30:28.462Z,14.38
2023-04-25T17:32:57.919Z,10.40
2023-04-25T17:35:28.428Z,12.07
2023-04-25T17:37:59.693Z,11.95
2023-04-25T17:40:29.531Z,14.93
2023-04-25T17:42:59.462Z,10.80
2023-04-25T17:45:34.901Z,10.60
2023-04-25T17:48:04.753Z,13.43
2023-04-25T17:50:34.796Z,8.02
2023-04-25T17:53:05.938Z,11.10
2023-04-25T17:55:35.661Z,12.43
2023-04-25T17:58:05.204Z,10.15
2023-04-25T18:00:35.496Z,9.60
2023-04-25T18:03:05.207Z,8.50
2023-04-25T18:05:36.116Z,7.10
2023-04-25T18:08:07.377Z,13.20
2023-04-25T18:10:37.502Z,10.05
2023-04-25T18:13:09.443Z,6.15
2023-04-25T18:15:39.675Z,7.00
2023-04-25T18:18:15.556Z,7.85
2023-04-25T18:20:46.995Z,14.63
2023-04-25T18:23:18.078Z,11.63
2023-04-25T18:25:52.130Z,8.40
2023-04-25T18:28:22.448Z,14.52
2023-04-25T18:30:52.202Z,14.55
2023-04-25T18:33:22.361Z,9.85
2023-04-25T18:38:35.477Z,10.95
2023-04-25T18:41:33.757Z,11.23
2023-04-25T18:43:58.783Z,9.48
2023-04-25T18:46:29.524Z,7.97
2023-04-25T18:48:58.937Z,13.47
2023-04-25T18:51:29.633Z,8.38
2023-04-25T18:54:01.292Z,7.47
2023-04-25T18:56:31.060Z,13.65
2023-04-25T18:59:00.811Z,8.02
2023-04-25T19:01:30.881Z,8.33
2023-04-25T19:04:01.667Z,13.48
2023-04-25T19:06:33.119Z,18.73
2023-04-25T19:09:04.078Z,16.95
2023-04-25T19:11:33.921Z,11.05
2023-04-25T19:14:03.815Z,9.68
2023-04-25T19:16:39.272Z,9.82
2023-04-25T19:19:10.191Z,8.93
2023-04-25T19:24:11.549Z,12.70
2023-04-25T19:26:41.742Z,10.82
2023-04-25T19:29:12.462Z,8.38
2023-04-25T19:31:43.240Z,11.70
2023-04-25T19:34:13.240Z,9.35
2023-04-25T19:36:44.389Z,16.25
2023-04-25T19:39:15.157Z,11.88
2023-04-25T19:41:45.722Z,19.45
2023-04-25T19:44:15.270Z,13.02
2023-04-25T19:46:46.922Z,13.73
2023-04-25T19:49:16.608Z,12.98
2023-04-25T19:51:47.083Z,11.82
2023-04-25T19:54:18.203Z,10.48
2023-04-25T19:56:49.028Z,8.85
2023-04-25T19:59:18.317Z,10.27
2023-04-25T20:01:48.149Z,9.02
2023-04-25T20:04:18.535Z,16.52
2023-04-25T20:06:48.289Z,9.65
2023-04-25T20:09:21.128Z,9.68
2023-04-25T20:11:51.319Z,11.73
2023-04-25T20:14:20.589Z,9.77
2023-04-25T20:16:50.465Z,10.77
2023-04-25T20:19:20.452Z,13.80
2023-04-25T20:21:50.123Z,12.45
2023-04-25T20:24:21.119Z,12.57
2023-04-25T20:26:50.981Z,15.68
2023-04-25T20:29:20.881Z,13.52
2023-04-25T20:31:52.101Z,9.57
2023-04-25T20:36:52.464Z,11.82
2023-04-25T20:39:23.398Z,10.23
2023-04-25T20:41:53.177Z,11.63
2023-04-25T20:44:23.774Z,13.88
2023-04-25T20:49:23.085Z,12.27
2023-04-25T20:51:52.926Z,10.90
2023-04-25T20:54:24.373Z,15.57
2023-04-25T20:56:54.170Z,13.10
2023-04-25T20:59:23.661Z,13.73
2023-04-25T21:01:54.736Z,10.27
2023-04-25T21:04:24.269Z,7.15
2023-04-25T21:06:54.284Z,12.63
2023-04-25T21:09:25.071Z,13.77
2023-04-25T21:11:55.024Z,10.70
2023-04-25T21:14:25.736Z,12.93
2023-04-25T21:19:24.581Z,11.57
2023-04-25T21:21:54.510Z,10.98
2023-04-25T21:24:27.190Z,16.58
2023-04-25T21:26:56.921Z,11.68
2023-04-25T21:29:26.300Z,9.15
2023-04-25T21:31:56.927Z,13.30
2023-04-25T21:34:27.079Z,9.18
2023-04-25T21:36:56.725Z,11.00
2023-04-25T21:39:27.809Z,14.27
2023-04-25T21:41:57.994Z,15.27
2023-04-25T21:44:29.079Z,11.20
2023-04-25T21:46:58.738Z,9.70
2023-04-25T21:49:30.124Z,9.77
2023-04-25T21:52:00.145Z,6.78
2023-04-25T21:54:31.003Z,11.48
2023-04-25T21:57:00.807Z,12.57
2023-04-25T21:59:30.203Z,16.63
2023-04-25T22:01:59.954Z,12.85
2023-04-25T22:04:29.551Z,10.68
2023-04-25T22:06:59.625Z,19.73
2023-04-25T22:09:31.935Z,9.35
2023-04-25T22:12:03.882Z,10.60
2023-04-25T22:14:33.266Z,15.30
2023-04-25T22:17:03.215Z,10.27
2023-04-25T22:19:32.781Z,13.32
2023-04-25T22:22:03.140Z,14.38
2023-04-25T22:24:34.100Z,8.05
2023-04-25T22:27:04.114Z,9.25
2023-04-25T22:29:33.626Z,10.10
2023-04-25T22:32:03.501Z,10.23
2023-04-25T22:34:32.998Z,11.15
2023-04-25T22:37:02.729Z,9.55
2023-04-25T22:39:33.613Z,14.40
2023-04-25T22:42:03.747Z,13.05
2023-04-25T22:44:33.187Z,11.43
2023-04-25T22:47:03.172Z,12.07
2023-04-25T22:49:32.426Z,10.15
2023-04-25T22:52:04.420Z,13.20
2023-04-25T22:54:35.556Z,11.40
2023-04-25T22:57:08.808Z,7.45
2023-04-25T22:59:38.466Z,13.73
2023-04-25T23:02:09.625Z,14.73
2023-04-25T23:04:39.016Z,9.85
2023-04-25T23:07:08.726Z,12.70
2023-04-25T23:09:39.502Z,11.73
2023-04-25T23:12:09.382Z,10.48
2023-04-25T23:14:39.413Z,14.57
2023-04-25T23:17:09.501Z,10.68
2023-04-25T23:19:39.708Z,7.35
2023-04-25T23:22:09.727Z,9.35
2023-04-25T23:24:40.896Z,13.60
2023-04-25T23:27:10.841Z,10.90
2023-04-25T23:29:40.901Z,11.13
2023-04-25T23:32:10.965Z,15.02
2023-04-25T23:34:40.275Z,16.65
2023-04-25T23:37:10.515Z,9.57
2023-04-25T23:39:41.823Z,9.45
2023-04-25T23:42:11.921Z,8.35
2023-04-25T23:44:41.348Z,11.77
2023-04-25T23:47:13.373Z,12.65
2023-04-25T23:49:42.862Z,12.60
2023-04-25T23:52:13.421Z,10.50
2023-04-25T23:54:44.237Z,15.02
2023-04-25T23:57:14.146Z,12.73
2023-04-25T23:59:45.259Z,12.48
